Terminal Aerodrome Forecast
Issued by NWS Sterling, VA

Current Version | Previous Version | Graphics & Text | Print | Product List | Glossary Off
Versions: 1 2 3 4 5 6 7 8 9 10 11 12 13 14 15 16

503
FTUS41 KLWX 230529
TAFMRB
TAF
KMRB 230529Z 2306/2406 VRB03KT 1SM BR SCT001 BKN200
      TEMPO 2306/2310 1/2SM FG BKN001
     FM231000 35004KT 1 1/2SM BR BKN200
     FM231200 VRB03KT P6SM BKN250
     FM232000 09004KT P6SM BKN250=

USA.gov is the U.S. government's official web portal to all federal, state and local government web resources and services.